Time;durP1;ratioP1;P1;durP2;ratioP2;P2;SDS_P1;SDS_P2;PMS_P1;PMS_P2;Temp;Humidity;BMP_temperature;BMP_pressure;BME280_temperature;BME280_humidity;BME280_pressure;Samples;Min_cycle;Max_cycle;Signal;HPM_P1;HPM_P2
2022/08/30 00:01:12;;;;;;;3.58;1.10;;;15.20;55.30;;;;;;5038973;28;20102;-71
2022/08/30 00:03:44;;;;;;;3.53;0.95;;;15.20;55.70;;;;;;5029774;28;20037;-71
2022/08/30 00:06:12;;;;;;;8.65;0.88;;;15.10;55.60;;;;;;5037695;28;20022;-71
2022/08/30 00:08:40;;;;;;;6.65;1.00;;;15.10;55.30;;;;;;5028709;28;20385;-71
2022/08/30 00:11:08;;;;;;;3.70;0.50;;;15.10;55.10;;;;;;5031427;28;20028;-70
2022/08/30 00:13:40;;;;;;;3.05;0.85;;;15.10;54.80;;;;;;5035742;28;20034;-71
2022/08/30 00:16:06;;;;;;;4.22;0.95;;;15.10;54.40;;;;;;5034426;28;20373;-71
2022/08/30 00:18:34;;;;;;;4.07;0.90;;;15.10;54.10;;;;;;5037209;28;20052;-71
2022/08/30 00:21:02;;;;;;;3.25;1.00;;;15.10;54.00;;;;;;5036108;28;20021;-70
2022/08/30 00:23:28;;;;;;;5.75;1.08;;;15.00;53.80;;;;;;5035995;28;20028;-71
2022/08/30 00:25:55;;;;;;;3.58;0.95;;;15.00;53.60;;;;;;5032278;28;20032;-71
2022/08/30 00:28:21;;;;;;;5.03;1.30;;;15.00;53.60;;;;;;5037790;28;20036;-71
2022/08/30 00:30:48;;;;;;;3.50;1.48;;;15.00;53.80;;;;;;5035947;28;20029;-70
2022/08/30 00:33:14;;;;;;;1.02;0.60;;;15.00;54.00;;;;;;5035637;28;20623;-71
2022/08/30 00:35:42;;;;;;;3.97;1.00;;;15.00;54.00;;;;;;5036912;28;20046;-70
2022/08/30 00:38:11;;;;;;;2.63;0.63;;;15.00;53.90;;;;;;5035162;28;20029;-71
2022/08/30 00:40:40;;;;;;;4.82;0.82;;;14.90;53.90;;;;;;5030612;28;20037;-71
2022/08/30 00:43:10;;;;;;;2.88;0.98;;;15.00;54.30;;;;;;5036741;28;20037;-71
2022/08/30 00:45:38;;;;;;;3.67;0.77;;;15.00;54.80;;;;;;5033988;28;20712;-70
2022/08/30 00:48:05;;;;;;;6.90;0.93;;;15.00;54.80;;;;;;5031803;28;20022;-72
2022/08/30 00:50:40;;;;;;;3.47;0.73;;;15.00;54.80;;;;;;5033218;28;20084;-72
2022/08/30 00:53:12;;;;;;;4.95;0.80;;;15.00;55.20;;;;;;5038832;28;20080;-72
2022/08/30 00:55:40;;;;;;;3.05;1.02;;;15.00;55.50;;;;;;5031946;28;20350;-72
2022/08/30 00:58:10;;;;;;;4.30;1.10;;;15.00;55.40;;;;;;5032800;28;20425;-72
2022/08/30 01:00:36;;;;;;;4.57;1.02;;;15.00;55.20;;;;;;5038935;28;20033;-72
2022/08/30 01:03:04;;;;;;;4.07;1.30;;;15.00;55.10;;;;;;5038471;28;20071;-72
2022/08/30 01:05:30;;;;;;;8.75;1.20;;;15.00;55.30;;;;;;5038759;28;20025;-71
2022/08/30 01:07:57;;;;;;;4.57;2.17;;;15.00;55.50;;;;;;5033699;28;20017;-71
2022/08/30 01:10:23;;;;;;;2.30;0.75;;;15.00;56.30;;;;;;5037349;28;20025;-71
2022/08/30 01:12:50;;;;;;;3.53;1.30;;;14.90;55.80;;;;;;5031239;28;20029;-71
2022/08/30 01:15:17;;;;;;;8.38;0.80;;;15.00;56.80;;;;;;5033856;28;21015;-71
2022/08/30 01:17:45;;;;;;;13.40;2.58;;;15.00;57.60;;;;;;5036330;28;20060;-72
2022/08/30 01:20:19;;;;;;;5.30;1.30;;;15.00;58.00;;;;;;5035924;28;20021;-71
2022/08/30 01:22:49;;;;;;;6.97;1.15;;;15.10;57.30;;;;;;5035700;28;20029;-72
2022/08/30 01:25:36;;;;;;;7.20;1.23;;;15.10;57.70;;;;;;5030009;28;20020;-72
2022/08/30 01:28:13;;;;;;;4.88;1.33;;;15.00;58.90;;;;;;5033014;28;20029;-72
2022/08/30 01:30:41;;;;;;;7.15;1.13;;;15.00;59.50;;;;;;5032006;28;20037;-72
2022/08/30 01:33:10;;;;;;;7.15;1.23;;;15.00;59.90;;;;;;5034794;28;20029;-71
2022/08/30 01:35:53;;;;;;;9.50;1.58;;;15.00;59.80;;;;;;5033519;28;20048;-71
2022/08/30 01:38:23;;;;;;;3.42;1.08;;;15.10;60.70;;;;;;5032016;28;20033;-71
2022/08/30 01:40:55;;;;;;;4.88;1.08;;;15.10;61.00;;;;;;5034197;28;20029;-71
2022/08/30 01:43:22;;;;;;;3.97;1.30;;;15.10;61.20;;;;;;5034660;28;20049;-71
2022/08/30 01:45:48;;;;;;;3.95;1.48;;;15.00;61.40;;;;;;5031218;28;20029;-71
2022/08/30 01:48:15;;;;;;;4.15;1.20;;;15.00;61.90;;;;;;5031351;28;20859;-70
2022/08/30 01:50:41;;;;;;;9.25;1.10;;;15.10;62.50;;;;;;5031210;28;20029;-71
2022/08/30 01:53:08;;;;;;;13.38;0.98;;;15.00;61.30;;;;;;5036034;28;20021;-70
2022/08/30 01:55:37;;;;;;;9.43;2.00;;;15.00;61.50;;;;;;5026443;28;20022;-71
2022/08/30 01:58:03;;;;;;;4.88;1.55;;;15.10;61.70;;;;;;5037012;28;20488;-71
2022/08/30 02:00:31;;;;;;;10.82;1.58;;;15.00;62.10;;;;;;5033591;28;20029;-72
2022/08/30 02:02:57;;;;;;;13.00;1.60;;;15.00;61.20;;;;;;5030646;28;20033;-70
2022/08/30 02:05:24;;;;;;;6.00;2.20;;;15.00;60.60;;;;;;5032377;28;20050;-71
2022/08/30 02:07:51;;;;;;;6.10;0.80;;;15.00;61.30;;;;;;5030165;28;20116;-71
2022/08/30 02:10:17;;;;;;;6.05;1.38;;;15.00;61.70;;;;;;5039217;28;20499;-71
2022/08/30 02:12:44;;;;;;;8.15;1.48;;;15.00;61.90;;;;;;5027387;28;20559;-70
2022/08/30 02:15:12;;;;;;;3.15;1.20;;;15.00;62.20;;;;;;5037117;28;20448;-70
2022/08/30 02:17:40;;;;;;;5.22;0.95;;;15.00;60.70;;;;;;5030246;28;20056;-70
2022/08/30 02:20:08;;;;;;;2.95;0.80;;;15.00;59.90;;;;;;5032784;28;20026;-70
2022/08/30 02:22:35;;;;;;;4.63;0.70;;;14.90;59.60;;;;;;5031873;28;20020;-71
2022/08/30 02:25:02;;;;;;;4.53;1.77;;;14.90;60.80;;;;;;5032149;28;20071;-71
2022/08/30 02:27:28;;;;;;;5.55;0.93;;;15.00;61.60;;;;;;5028039;28;20029;-71
2022/08/30 02:29:55;;;;;;;5.15;1.10;;;15.00;61.90;;;;;;5032243;28;20021;-71
2022/08/30 02:32:21;;;;;;;4.05;1.83;;;15.00;62.90;;;;;;5032888;28;20025;-69
2022/08/30 02:34:48;;;;;;;5.68;1.60;;;15.00;63.20;;;;;;5032690;28;20050;-71
2022/08/30 02:37:15;;;;;;;4.75;0.90;;;15.00;63.60;;;;;;5029886;28;20060;-70
2022/08/30 02:39:41;;;;;;;2.58;0.90;;;15.00;63.90;;;;;;5023162;28;20499;-71
2022/08/30 02:42:08;;;;;;;12.45;2.15;;;15.00;64.20;;;;;;5031676;28;20040;-71
2022/08/30 02:44:34;;;;;;;3.35;1.08;;;15.00;64.60;;;;;;5025470;28;20397;-71
2022/08/30 02:47:01;;;;;;;5.85;0.70;;;15.00;64.10;;;;;;5030871;28;20093;-70
2022/08/30 02:49:27;;;;;;;9.55;0.95;;;15.00;63.60;;;;;;5031828;28;20564;-70
2022/08/30 02:51:54;;;;;;;4.35;0.90;;;15.00;63.80;;;;;;5032494;28;20025;-71
2022/08/30 02:54:20;;;;;;;4.88;0.90;;;15.00;63.40;;;;;;5031141;28;20032;-71
2022/08/30 02:56:48;;;;;;;4.68;1.00;;;15.00;63.30;;;;;;5030614;28;20037;-71
2022/08/30 02:59:18;;;;;;;4.43;1.02;;;15.00;63.10;;;;;;5031386;28;20045;-71
2022/08/30 03:01:44;;;;;;;9.55;0.70;;;14.90;62.90;;;;;;5029882;28;20440;-71
2022/08/30 03:04:11;;;;;;;11.82;1.15;;;15.00;62.90;;;;;;5035970;28;20484;-71
2022/08/30 03:06:37;;;;;;;9.30;1.15;;;14.90;62.80;;;;;;5024974;28;20059;-71
2022/08/30 03:09:04;;;;;;;3.90;1.50;;;14.90;62.60;;;;;;5026877;28;20102;-72
2022/08/30 03:11:31;;;;;;;11.63;1.25;;;14.90;62.60;;;;;;5029116;28;20457;-72
2022/08/30 03:13:57;;;;;;;8.73;1.13;;;14.90;62.50;;;;;;5029386;28;20036;-71
2022/08/30 03:16:24;;;;;;;3.92;0.70;;;14.90;61.80;;;;;;5023542;28;20839;-71
2022/08/30 03:18:50;;;;;;;5.20;0.95;;;14.90;62.20;;;;;;5034207;28;20496;-71
2022/08/30 03:21:17;;;;;;;6.13;2.92;;;14.90;62.60;;;;;;5026934;28;20513;-70
2022/08/30 03:23:43;;;;;;;17.90;10.82;;;14.90;62.70;;;;;;5027829;28;20122;-70
2022/08/30 03:26:13;;;;;;;9.35;7.32;;;14.90;63.00;;;;;;5029228;28;20024;-70
2022/08/30 03:28:41;;;;;;;8.27;4.60;;;14.90;62.90;;;;;;5028650;28;20037;-70
2022/08/30 03:31:09;;;;;;;4.50;2.80;;;14.90;62.90;;;;;;5028483;28;20033;-71
2022/08/30 03:33:38;;;;;;;3.50;1.85;;;14.90;62.60;;;;;;5023792;28;20439;-71
2022/08/30 03:36:06;;;;;;;5.25;1.52;;;14.90;62.40;;;;;;5025898;28;20045;-71
2022/08/30 03:38:32;;;;;;;4.35;0.80;;;14.90;62.40;;;;;;5028098;28;20517;-70
2022/08/30 03:40:59;;;;;;;6.50;1.35;;;14.90;62.10;;;;;;5032319;28;20120;-71
2022/08/30 03:43:25;;;;;;;5.45;0.90;;;14.90;62.00;;;;;;5026880;28;20021;-70
2022/08/30 03:45:52;;;;;;;4.07;1.30;;;14.90;61.80;;;;;;5033325;28;20479;-71
2022/08/30 03:48:18;;;;;;;3.78;0.77;;;14.90;61.50;;;;;;5033162;28;20025;-70
2022/08/30 03:50:45;;;;;;;1.33;0.50;;;14.90;61.20;;;;;;5033362;28;20041;-70
2022/08/30 03:53:12;;;;;;;10.80;0.80;;;14.80;60.60;;;;;;5031714;28;20393;-71
2022/08/30 03:55:38;;;;;;;4.25;1.00;;;14.80;60.60;;;;;;5031388;28;20049;-69
2022/08/30 03:58:05;;;;;;;5.80;0.75;;;14.80;60.70;;;;;;5026879;28;20088;-70
2022/08/30 04:00:31;;;;;;;2.97;1.08;;;14.80;60.90;;;;;;5032360;28;20018;-66
2022/08/30 04:02:58;;;;;;;4.63;1.20;;;14.70;60.60;;;;;;5032710;28;20467;-68
2022/08/30 04:05:26;;;;;;;5.68;1.38;;;14.80;60.50;;;;;;5039218;28;20025;-66
2022/08/30 04:07:53;;;;;;;4.65;1.67;;;14.70;60.30;;;;;;5030671;28;20046;-68
2022/08/30 04:10:20;;;;;;;5.07;1.27;;;14.80;59.90;;;;;;5030717;28;20049;-67
2022/08/30 04:12:48;;;;;;;7.63;5.50;;;14.70;59.20;;;;;;5031862;28;20045;-68
2022/08/30 04:15:15;;;;;;;17.33;6.88;;;14.60;61.40;;;;;;5034066;28;20491;-68
2022/08/30 04:17:41;;;;;;;12.48;8.05;;;14.60;61.30;;;;;;5034194;28;20085;-68
2022/08/30 04:20:08;;;;;;;7.70;3.97;;;14.60;60.50;;;;;;5029105;28;20071;-70
2022/08/30 04:22:35;;;;;;;3.58;1.80;;;14.60;60.00;;;;;;5029781;28;20091;-70
2022/08/30 04:25:04;;;;;;;4.07;1.95;;;14.60;59.60;;;;;;5031345;28;20033;-68
2022/08/30 04:27:31;;;;;;;6.47;1.23;;;14.60;59.50;;;;;;5037340;28;20053;-70
2022/08/30 04:29:59;;;;;;;14.00;2.60;;;14.60;59.30;;;;;;5033585;28;20059;-70
2022/08/30 04:32:25;;;;;;;11.23;2.28;;;14.60;58.90;;;;;;5035295;28;20029;-69
2022/08/30 04:34:57;;;;;;;3.85;1.05;;;14.60;58.90;;;;;;5035545;28;20198;-70
2022/08/30 04:37:23;;;;;;;3.28;0.70;;;14.60;58.50;;;;;;5032592;28;20094;-69
2022/08/30 04:39:50;;;;;;;3.28;1.30;;;14.50;58.30;;;;;;5031374;28;20108;-70
2022/08/30 04:42:17;;;;;;;3.00;0.82;;;14.50;58.20;;;;;;5030752;28;20163;-70
2022/08/30 04:44:43;;;;;;;1.52;1.10;;;14.50;58.30;;;;;;5032177;28;20033;-70
2022/08/30 04:47:10;;;;;;;3.30;0.77;;;14.50;59.00;;;;;;5028420;28;20025;-70
2022/08/30 04:49:37;;;;;;;3.58;0.90;;;14.50;58.60;;;;;;5036253;28;20468;-69
2022/08/30 04:52:05;;;;;;;2.63;0.98;;;14.50;58.80;;;;;;5044191;28;20395;-70
2022/08/30 04:54:31;;;;;;;2.20;1.10;;;14.40;58.70;;;;;;5032985;28;20566;-70
2022/08/30 04:56:59;;;;;;;11.90;1.08;;;14.40;59.00;;;;;;5032171;28;20392;-70
2022/08/30 04:59:26;;;;;;;7.63;1.42;;;14.40;59.30;;;;;;5032312;28;20064;-70
2022/08/30 05:01:52;;;;;;;2.90;0.88;;;14.50;59.40;;;;;;5040708;28;20036;-70
2022/08/30 05:04:19;;;;;;;3.58;1.10;;;14.40;59.00;;;;;;5031211;28;20465;-70
2022/08/30 05:06:45;;;;;;;3.97;1.13;;;14.40;58.60;;;;;;5034049;28;20056;-71
2022/08/30 05:09:12;;;;;;;4.65;0.70;;;14.50;58.90;;;;;;5032355;28;20120;-70
2022/08/30 05:11:39;;;;;;;4.28;1.15;;;14.50;58.80;;;;;;5033905;28;20029;-70
2022/08/30 05:14:05;;;;;;;5.32;0.70;;;14.50;58.30;;;;;;5032445;28;20020;-71
2022/08/30 05:16:32;;;;;;;2.50;1.33;;;14.50;58.20;;;;;;5033810;28;20873;-71
2022/08/30 05:18:59;;;;;;;2.40;1.02;;;14.40;58.20;;;;;;5035452;28;20033;-69
2022/08/30 05:21:26;;;;;;;1.10;0.60;;;14.40;58.40;;;;;;5039629;28;20154;-70
2022/08/30 05:23:55;;;;;;;4.55;0.98;;;14.50;58.60;;;;;;5033629;28;20396;-70
2022/08/30 05:26:31;;;;;;;4.68;0.80;;;14.40;59.40;;;;;;5037402;28;20622;-71
2022/08/30 05:28:58;;;;;;;5.90;2.58;;;14.40;59.90;;;;;;5037442;28;20380;-70
2022/08/30 05:31:30;;;;;;;6.85;1.10;;;14.40;59.30;;;;;;5028238;28;20032;-71
2022/08/30 05:33:57;;;;;;;6.32;0.98;;;14.40;59.40;;;;;;5032651;28;20083;-70
2022/08/30 05:36:26;;;;;;;7.45;1.08;;;14.40;59.10;;;;;;5039682;28;20083;-70
2022/08/30 05:38:54;;;;;;;11.52;2.88;;;14.40;59.50;;;;;;5031187;28;20049;-70
2022/08/30 05:41:23;;;;;;;2.83;1.20;;;14.40;58.70;;;;;;5031654;28;20453;-70
2022/08/30 05:43:53;;;;;;;2.75;1.33;;;14.40;58.60;;;;;;5033175;28;20115;-70
2022/08/30 05:46:20;;;;;;;4.80;0.93;;;14.40;58.60;;;;;;5032470;28;20018;-70
2022/08/30 05:48:47;;;;;;;6.28;1.63;;;14.40;58.60;;;;;;5031776;28;20022;-70
2022/08/30 05:51:20;;;;;;;4.75;1.92;;;14.40;58.80;;;;;;5034930;28;20013;-70
2022/08/30 05:53:48;;;;;;;11.65;1.20;;;14.40;58.90;;;;;;5031131;28;20397;-70
2022/08/30 05:56:18;;;;;;;3.08;1.33;;;14.40;58.90;;;;;;5034714;28;20408;-69
2022/08/30 05:58:45;;;;;;;6.22;1.60;;;14.40;59.50;;;;;;5035712;28;20065;-71
2022/08/30 06:01:30;;;;;;;4.32;1.58;;;14.40;60.00;;;;;;5028413;28;20415;-70
2022/08/30 06:04:02;;;;;;;7.13;2.17;;;14.50;60.00;;;;;;5034429;28;20033;-70
2022/08/30 06:06:30;;;;;;;2.85;1.58;;;14.40;59.80;;;;;;5038221;28;20108;-70
2022/08/30 06:08:56;;;;;;;4.30;1.85;;;14.40;59.70;;;;;;5034160;28;20123;-71
2022/08/30 06:11:25;;;;;;;3.60;1.60;;;14.50;59.90;;;;;;5026651;28;20412;-70
2022/08/30 06:13:53;;;;;;;6.32;1.38;;;14.50;60.10;;;;;;5027796;28;20036;-69
2022/08/30 06:16:21;;;;;;;4.05;1.98;;;14.50;60.60;;;;;;5036154;28;20383;-70
2022/08/30 06:18:48;;;;;;;4.68;1.63;;;14.50;61.60;;;;;;5031081;28;20397;-70
2022/08/30 06:21:23;;;;;;;8.55;2.45;;;14.50;61.60;;;;;;5039085;28;20027;-69
2022/08/30 06:23:49;;;;;;;3.15;1.60;;;14.50;61.80;;;;;;5036543;28;20067;-70
2022/08/30 06:26:16;;;;;;;4.13;1.20;;;14.50;61.80;;;;;;5037027;28;20030;-69
2022/08/30 06:28:43;;;;;;;5.25;2.00;;;14.50;61.80;;;;;;5025251;28;20113;-70
2022/08/30 06:31:12;;;;;;;5.45;1.33;;;14.50;61.80;;;;;;5027578;28;20029;-69
2022/08/30 06:33:40;;;;;;;6.93;1.48;;;14.50;61.40;;;;;;5034767;28;20055;-70
2022/08/30 06:36:12;;;;;;;2.03;1.02;;;14.50;60.30;;;;;;5035757;28;20053;-69
2022/08/30 06:38:39;;;;;;;2.92;1.17;;;14.50;59.70;;;;;;5023168;28;20859;-70
2022/08/30 06:41:12;;;;;;;3.75;0.95;;;14.60;59.40;;;;;;5030442;28;20053;-70
2022/08/30 06:43:38;;;;;;;3.60;1.10;;;14.60;59.10;;;;;;5034685;28;20033;-69
2022/08/30 06:46:09;;;;;;;1.55;0.60;;;14.60;58.90;;;;;;5035806;28;20451;-69
2022/08/30 06:48:36;;;;;;;3.85;0.80;;;14.70;58.60;;;;;;5031417;28;20040;-70
2022/08/30 06:51:03;;;;;;;2.30;0.80;;;14.70;58.40;;;;;;5035436;28;20034;-69
2022/08/30 06:53:30;;;;;;;2.47;0.73;;;14.70;58.10;;;;;;5031611;28;20071;-69
2022/08/30 06:56:03;;;;;;;3.47;1.70;;;14.70;58.30;;;;;;5030832;28;20125;-70
2022/08/30 06:58:31;;;;;;;3.80;1.60;;;14.80;58.40;;;;;;5030822;28;20037;-69
2022/08/30 07:00:57;;;;;;;8.10;2.40;;;14.80;58.50;;;;;;5028265;28;20029;-70
2022/08/30 07:03:26;;;;;;;2.78;0.50;;;14.80;58.70;;;;;;5032694;28;20099;-70
2022/08/30 07:05:53;;;;;;;2.92;0.70;;;14.90;59.00;;;;;;5031061;28;20057;-69
2022/08/30 07:08:21;;;;;;;2.42;0.70;;;14.90;59.00;;;;;;5038078;28;20404;-70
2022/08/30 07:10:49;;;;;;;3.03;0.52;;;14.90;58.60;;;;;;5029691;28;20072;-70
2022/08/30 07:13:16;;;;;;;1.77;0.77;;;15.00;58.30;;;;;;5025677;28;20396;-69
2022/08/30 07:15:43;;;;;;;2.05;0.75;;;15.00;57.80;;;;;;5030342;28;20030;-70
2022/08/30 07:20:57;;;;;;;3.88;0.85;;;15.00;57.70;;;;;;5031792;28;20120;-70
2022/08/30 07:23:24;;;;;;;0.32;0.32;;;15.10;57.90;;;;;;5029240;28;20134;-70
2022/08/30 07:25:50;;;;;;;5.45;0.95;;;15.10;57.70;;;;;;5038522;28;20095;-70
2022/08/30 07:28:17;;;;;;;1.85;0.52;;;15.20;57.30;;;;;;5032568;28;20017;-70
2022/08/30 07:30:43;;;;;;;1.98;0.63;;;15.20;56.60;;;;;;5039027;28;20037;-70
2022/08/30 07:33:10;;;;;;;2.63;0.45;;;15.20;56.40;;;;;;5031744;28;20026;-70
2022/08/30 07:35:36;;;;;;;0.90;0.47;;;15.30;56.10;;;;;;5033801;28;20540;-70
2022/08/30 07:38:03;;;;;;;1.38;0.68;;;15.30;55.80;;;;;;5033736;28;20516;-70
2022/08/30 07:40:29;;;;;;;1.30;0.60;;;15.30;55.60;;;;;;5038878;28;20033;-70
2022/08/30 07:42:57;;;;;;;2.33;0.50;;;15.30;55.10;;;;;;5038466;28;20083;-69
2022/08/30 07:45:24;;;;;;;1.70;0.77;;;15.30;54.60;;;;;;5042283;28;20108;-70
2022/08/30 07:47:50;;;;;;;1.40;0.50;;;15.30;54.50;;;;;;5034821;28;20079;-70
2022/08/30 07:50:17;;;;;;;0.85;0.47;;;15.40;54.30;;;;;;5034578;28;20026;-69
2022/08/30 07:52:43;;;;;;;3.65;0.57;;;15.40;53.90;;;;;;5035133;28;20474;-70
2022/08/30 07:55:10;;;;;;;2.35;0.65;;;15.40;53.70;;;;;;5034948;28;20033;-70
2022/08/30 07:57:36;;;;;;;1.30;0.50;;;15.50;53.60;;;;;;5033315;28;20053;-70
2022/08/30 08:00:05;;;;;;;2.05;0.70;;;15.50;53.30;;;;;;5037969;28;20447;-71
2022/08/30 08:02:32;;;;;;;4.63;0.85;;;15.60;53.20;;;;;;5032416;28;20025;-70
2022/08/30 08:04:59;;;;;;;3.45;0.77;;;15.70;53.20;;;;;;5040662;28;20029;-70
2022/08/30 08:07:26;;;;;;;2.67;0.77;;;15.70;53.30;;;;;;5028352;28;20064;-70
2022/08/30 08:09:52;;;;;;;2.38;0.55;;;15.80;53.00;;;;;;5034953;28;20494;-71
2022/08/30 08:12:19;;;;;;;1.42;0.40;;;15.80;52.80;;;;;;5026575;28;20053;-69
2022/08/30 08:14:46;;;;;;;1.60;0.85;;;15.80;52.30;;;;;;5039373;28;20029;-70
2022/08/30 08:17:12;;;;;;;2.70;0.52;;;15.90;52.40;;;;;;5034654;28;20068;-70
2022/08/30 08:19:38;;;;;;;4.28;1.08;;;15.90;52.10;;;;;;5033333;28;20033;-70
2022/08/30 08:22:05;;;;;;;3.67;0.63;;;15.90;51.60;;;;;;5037133;28;20044;-70
2022/08/30 08:24:31;;;;;;;4.05;0.88;;;15.90;51.50;;;;;;5039419;28;20111;-70
2022/08/30 08:26:58;;;;;;;1.48;0.52;;;16.00;51.00;;;;;;5028332;28;20028;-70
2022/08/30 08:29:26;;;;;;;3.65;0.70;;;16.00;50.40;;;;;;5036060;28;20508;-70
2022/08/30 08:31:53;;;;;;;4.70;0.70;;;16.10;50.30;;;;;;5038486;28;20028;-71
2022/08/30 08:34:22;;;;;;;4.40;0.68;;;16.10;50.10;;;;;;5036235;28;20029;-70
2022/08/30 08:36:49;;;;;;;1.42;0.55;;;16.10;49.90;;;;;;5034670;28;20122;-70
2022/08/30 08:39:16;;;;;;;2.72;0.63;;;16.10;49.50;;;;;;5035719;28;20029;-70
2022/08/30 08:42:04;;;;;;;1.20;0.82;;;16.20;49.00;;;;;;5033794;28;20520;-68
2022/08/30 08:44:49;;;;;;;1.95;0.45;;;16.20;48.60;;;;;;5037960;28;20425;-70
2022/08/30 08:47:32;;;;;;;2.67;0.90;;;16.30;48.40;;;;;;5030304;28;20033;-70
2022/08/30 08:50:02;;;;;;;1.90;1.35;;;16.30;48.40;;;;;;5032648;28;20025;-70
2022/08/30 08:55:50;;;;;;;6.88;0.85;;;16.50;48.40;;;;;;5033240;28;20531;-70
2022/08/30 08:58:25;;;;;;;4.13;0.63;;;16.50;47.90;;;;;;5034735;28;20404;-70
2022/08/30 09:00:52;;;;;;;3.50;0.55;;;16.60;48.00;;;;;;5031990;28;20029;-69
2022/08/30 09:03:21;;;;;;;2.13;0.47;;;16.60;47.70;;;;;;5033660;28;20551;-70
2022/08/30 09:05:49;;;;;;;1.30;0.43;;;16.70;47.30;;;;;;5039035;28;20029;-70
2022/08/30 09:08:17;;;;;;;2.60;0.68;;;16.80;47.20;;;;;;5034015;28;20025;-70
2022/08/30 09:10:57;;;;;;;3.92;0.70;;;16.90;47.30;;;;;;5027279;28;20060;-70
2022/08/30 09:13:24;;;;;;;0.85;0.43;;;16.90;46.80;;;;;;5036098;28;20026;-70
2022/08/30 09:15:56;;;;;;;2.65;0.60;;;17.00;46.50;;;;;;5033914;28;20384;-69
2022/08/30 09:18:44;;;;;;;1.73;0.50;;;17.00;46.30;;;;;;5036952;28;20458;-70
2022/08/30 09:21:11;;;;;;;2.22;0.60;;;17.00;46.10;;;;;;5029888;28;20021;-70
2022/08/30 09:23:49;;;;;;;2.95;0.50;;;17.10;46.10;;;;;;5034901;28;20030;-69
2022/08/30 09:26:35;;;;;;;2.28;0.65;;;17.10;45.80;;;;;;5029404;28;20041;-70
2022/08/30 09:29:03;;;;;;;1.38;0.75;;;17.20;46.00;;;;;;5029431;28;20103;-70
2022/08/30 09:31:44;;;;;;;2.33;1.48;;;17.30;46.20;;;;;;5036948;28;20083;-69
2022/08/30 09:34:18;;;;;;;1.35;0.50;;;17.30;46.20;;;;;;5030580;28;20026;-70
2022/08/30 09:36:48;;;;;;;1.42;0.68;;;17.40;46.20;;;;;;5035344;28;20041;-70
2022/08/30 09:39:17;;;;;;;1.65;1.02;;;17.50;46.20;;;;;;5029239;28;20385;-69
2022/08/30 09:41:48;;;;;;;0.82;0.50;;;17.50;45.90;;;;;;5036774;28;20029;-69
2022/08/30 09:44:28;;;;;;;2.00;1.25;;;17.60;45.70;;;;;;5033623;28;20025;-70
2022/08/30 09:46:57;;;;;;;0.80;0.35;;;17.60;45.70;;;;;;5037605;28;20021;-70
2022/08/30 09:49:37;;;;;;;3.75;0.82;;;17.70;45.70;;;;;;5031858;28;20571;-70
2022/08/30 09:52:16;;;;;;;2.03;0.40;;;17.70;45.50;;;;;;5025572;28;20057;-69
2022/08/30 09:54:51;;;;;;;8.05;1.77;;;17.80;45.40;;;;;;5025660;28;20048;-70
2022/08/30 09:57:54;;;;;;;3.05;0.65;;;17.80;45.40;;;;;;5035116;28;20504;-70
2022/08/30 10:00:23;;;;;;;1.05;0.55;;;17.80;45.60;;;;;;5027721;28;20124;-70
2022/08/30 10:03:18;;;;;;;2.83;0.63;;;17.90;45.50;;;;;;5028723;28;20116;-70
2022/08/30 10:06:02;;;;;;;2.05;0.60;;;17.90;45.30;;;;;;5033195;28;20079;-70
2022/08/30 10:08:48;;;;;;;1.90;1.17;;;17.90;45.00;;;;;;5039424;28;20091;-70
2022/08/30 10:11:49;;;;;;;2.75;0.80;;;18.00;44.70;;;;;;5028182;28;20485;-70
2022/08/30 10:14:28;;;;;;;2.88;0.70;;;18.00;44.40;;;;;;5036063;28;20116;-70
2022/08/30 10:17:01;;;;;;;2.97;0.40;;;18.10;43.90;;;;;;5032401;28;20075;-70
2022/08/30 10:20:01;;;;;;;3.35;0.93;;;18.10;43.90;;;;;;5038544;28;20025;-70
2022/08/30 10:22:35;;;;;;;1.65;0.70;;;18.20;44.40;;;;;;5032543;28;20496;-70
2022/08/30 10:25:25;;;;;;;1.65;0.75;;;18.20;44.10;;;;;;5027084;28;20026;-69
2022/08/30 10:28:16;;;;;;;2.85;0.45;;;18.30;44.40;;;;;;5028148;28;20170;-70
2022/08/30 10:30:58;;;;;;;2.92;0.55;;;18.30;44.50;;;;;;5032054;28;20034;-69
2022/08/30 10:33:54;;;;;;;0.80;0.40;;;18.40;44.50;;;;;;5029876;28;20033;-69
2022/08/30 10:36:29;;;;;;;3.00;0.85;;;18.50;44.70;;;;;;5027116;28;20077;-70
2022/08/30 10:38:57;;;;;;;2.80;0.70;;;18.50;44.50;;;;;;5036367;28;20063;-69
2022/08/30 10:41:35;;;;;;;2.70;1.35;;;18.60;44.40;;;;;;5032102;28;20040;-70
2022/08/30 10:44:20;;;;;;;1.88;0.80;;;18.70;44.30;;;;;;5028740;28;20033;-71
2022/08/30 10:47:01;;;;;;;0.85;0.40;;;18.70;44.00;;;;;;5030005;28;20068;-70
2022/08/30 10:49:45;;;;;;;3.10;0.80;;;18.70;44.20;;;;;;5036762;28;20026;-70
2022/08/30 10:52:30;;;;;;;2.47;0.70;;;18.80;44.20;;;;;;5026816;28;20036;-70
2022/08/30 10:55:17;;;;;;;1.35;0.80;;;18.90;44.00;;;;;;5027249;28;20475;-70
2022/08/30 10:57:44;;;;;;;2.65;0.70;;;18.90;43.70;;;;;;5029136;28;20136;-70
2022/08/30 11:00:22;;;;;;;1.10;0.50;;;18.90;43.50;;;;;;5031328;28;20029;-70
2022/08/30 11:03:07;;;;;;;1.95;0.70;;;19.00;43.20;;;;;;5034583;28;20029;-69
2022/08/30 11:06:01;;;;;;;3.05;0.73;;;19.00;42.70;;;;;;5031091;28;20034;-70
2022/08/30 11:08:46;;;;;;;2.20;0.65;;;19.00;42.70;;;;;;5032591;28;20063;-70
2022/08/30 11:11:31;;;;;;;2.23;0.70;;;19.20;42.80;;;;;;5029912;28;20461;-70
2022/08/30 11:14:02;;;;;;;2.17;0.80;;;19.20;43.00;;;;;;5022459;28;20619;-69
2022/08/30 11:16:50;;;;;;;1.88;0.70;;;19.20;42.40;;;;;;5033088;28;20617;-70
2022/08/30 11:19:37;;;;;;;2.28;0.80;;;19.30;42.20;;;;;;5033858;28;20112;-70
2022/08/30 11:22:14;;;;;;;5.15;1.05;;;19.40;42.20;;;;;;5026781;28;20541;-70
2022/08/30 11:25:10;;;;;;;3.67;0.68;;;19.40;42.20;;;;;;5035926;28;20460;-70
2022/08/30 11:27:49;;;;;;;1.67;0.45;;;19.50;41.90;;;;;;5030568;28;20044;-70
2022/08/30 11:30:24;;;;;;;2.08;0.75;;;19.60;41.10;;;;;;5028020;28;20550;-70
2022/08/30 11:33:13;;;;;;;;;;;19.70;41.10;;;;;;5032891;28;20033;-70
2022/08/30 11:35:48;;;;;;;2.70;0.70;;;19.70;40.70;;;;;;5032224;28;19917;-70
2022/08/30 11:38:27;;;;;;;5.97;0.90;;;19.80;41.10;;;;;;5030094;28;20599;-70
2022/08/30 11:40:54;;;;;;;3.03;0.55;;;19.80;40.80;;;;;;5027562;28;20108;-70
2022/08/30 11:43:39;;;;;;;2.53;0.52;;;19.90;40.00;;;;;;5028406;28;20065;-70
2022/08/30 11:46:36;;;;;;;3.88;0.77;;;19.90;39.60;;;;;;5029593;28;20025;-70
2022/08/30 11:49:14;;;;;;;1.67;0.63;;;20.00;39.80;;;;;;5033359;28;20116;-70
2022/08/30 11:52:19;;;;;;;3.22;0.88;;;20.00;39.90;;;;;;5027470;28;20025;-70
2022/08/30 11:55:23;;;;;;;1.58;0.40;;;20.10;39.60;;;;;;5029800;28;20507;-70
2022/08/30 11:57:53;;;;;;;3.67;0.82;;;20.20;38.70;;;;;;5028379;28;20143;-70
2022/08/30 12:00:38;;;;;;;0.80;0.50;;;20.30;39.00;;;;;;5036460;28;20112;-72
2022/08/30 12:03:27;;;;;;;2.28;0.68;;;20.30;39.40;;;;;;5026060;28;20052;-70
2022/08/30 12:06:00;;;;;;;3.88;0.85;;;20.40;39.80;;;;;;5032097;28;20502;-70
2022/08/30 12:08:35;;;;;;;2.00;0.82;;;20.40;40.90;;;;;;5030309;28;20037;-69
2022/08/30 12:11:10;;;;;;;;;;;20.50;40.50;;;;;;5029760;28;20079;-70
2022/08/30 12:13:37;;;;;;;2.40;0.80;;;20.50;39.90;;;;;;5026858;28;19909;-70
2022/08/30 12:19:29;;;;;;;0.80;0.65;;;20.70;39.90;;;;;;5001411;28;20057;-70
2022/08/30 12:22:03;;;;;;;3.13;0.57;;;20.70;39.50;;;;;;4999811;28;20030;-70
2022/08/30 12:24:38;;;;;;;3.10;0.50;;;20.80;39.40;;;;;;5020704;28;20041;-70
2022/08/30 12:27:25;;;;;;;2.05;0.50;;;20.80;39.90;;;;;;5030698;28;20037;-70
2022/08/30 12:30:00;;;;;;;1.83;1.08;;;20.80;39.50;;;;;;5039840;28;20017;-70
2022/08/30 12:32:29;;;;;;;0.98;0.80;;;20.80;39.50;;;;;;5033511;28;20044;-70
2022/08/30 12:35:01;;;;;;;3.33;0.75;;;20.80;39.30;;;;;;5041057;28;20516;-71
2022/08/30 12:37:35;;;;;;;4.80;0.90;;;20.80;38.60;;;;;;5035774;28;20037;-70
2022/08/30 12:40:19;;;;;;;8.32;0.93;;;20.80;39.10;;;;;;5028501;28;20032;-70
2022/08/30 12:43:16;;;;;;;3.13;0.68;;;20.90;39.50;;;;;;5027435;28;20052;-70
2022/08/30 12:45:45;;;;;;;4.72;1.35;;;20.80;39.20;;;;;;5030029;28;20459;-69
2022/08/30 12:48:16;;;;;;;2.97;1.73;;;20.90;39.00;;;;;;5032389;28;20266;-70
2022/08/30 12:50:55;;;;;;;1.58;0.75;;;20.80;38.60;;;;;;5038609;28;20033;-70
2022/08/30 12:53:30;;;;;;;2.35;1.08;;;20.90;38.80;;;;;;5034823;28;20026;-70
2022/08/30 12:56:06;;;;;;;4.97;0.88;;;20.90;39.00;;;;;;5044151;28;20017;-71
2022/08/30 12:58:42;;;;;;;2.65;0.88;;;20.90;39.20;;;;;;5034305;28;20049;-70
2022/08/30 13:01:29;;;;;;;2.45;0.65;;;20.90;39.10;;;;;;5034002;28;20017;-70
2022/08/30 13:03:57;;;;;;;3.40;0.93;;;20.90;38.60;;;;;;5036868;28;20400;-70
2022/08/30 13:06:37;;;;;;;2.45;0.90;;;20.90;38.90;;;;;;5033149;28;20033;-70
2022/08/30 13:09:04;;;;;;;3.28;0.80;;;20.90;38.80;;;;;;5031702;28;20029;-70
2022/08/30 13:11:30;;;;;;;4.35;1.02;;;21.00;38.90;;;;;;5034176;28;20033;-69
2022/08/30 13:14:20;;;;;;;1.45;0.85;;;20.90;38.90;;;;;;5033939;28;20037;-70
2022/08/30 13:16:47;;;;;;;7.65;1.35;;;20.90;38.90;;;;;;5034352;28;20473;-70
2022/08/30 13:19:34;;;;;;;3.97;1.15;;;20.90;39.00;;;;;;5036342;28;20037;-70